sensor_id;sensor_type;location;lat;lon;timestamp;P1;durP1;ratioP1;P2;durP2;ratioP2
18140;SDS011;9196;49.194;12.526;2023-04-29T00:00:00;4.60;;;4.30;;
18140;SDS011;9196;49.194;12.526;2023-04-29T00:02:29;4.97;;;4.57;;
18140;SDS011;9196;49.194;12.526;2023-04-29T00:04:56;5.17;;;4.67;;
18140;SDS011;9196;49.194;12.526;2023-04-29T00:07:23;6.40;;;4.53;;
18140;SDS011;9196;49.194;12.526;2023-04-29T00:09:50;4.57;;;4.20;;
18140;SDS011;9196;49.194;12.526;2023-04-29T00:12:17;9.90;;;4.83;;
18140;SDS011;9196;49.194;12.526;2023-04-29T00:14:44;3.57;;;3.37;;
18140;SDS011;9196;49.194;12.526;2023-04-29T00:17:10;4.73;;;3.90;;
18140;SDS011;9196;49.194;12.526;2023-04-29T00:19:39;4.60;;;4.20;;
18140;SDS011;9196;49.194;12.526;2023-04-29T00:22:05;4.40;;;4.07;;
18140;SDS011;9196;49.194;12.526;2023-04-29T00:24:33;3.93;;;3.70;;
18140;SDS011;9196;49.194;12.526;2023-04-29T00:27:00;4.17;;;3.77;;
18140;SDS011;9196;49.194;12.526;2023-04-29T00:29:27;4.30;;;3.93;;
18140;SDS011;9196;49.194;12.526;2023-04-29T00:31:53;4.57;;;4.23;;
18140;SDS011;9196;49.194;12.526;2023-04-29T00:34:20;5.90;;;5.10;;
18140;SDS011;9196;49.194;12.526;2023-04-29T00:36:48;4.93;;;4.53;;
18140;SDS011;9196;49.194;12.526;2023-04-29T00:39:15;5.83;;;5.20;;
18140;SDS011;9196;49.194;12.526;2023-04-29T00:41:42;5.27;;;4.80;;
18140;SDS011;9196;49.194;12.526;2023-04-29T00:44:09;4.90;;;4.50;;
18140;SDS011;9196;49.194;12.526;2023-04-29T00:46:35;5.13;;;4.70;;
18140;SDS011;9196;49.194;12.526;2023-04-29T00:49:02;7.93;;;4.83;;
18140;SDS011;9196;49.194;12.526;2023-04-29T00:51:29;5.00;;;4.60;;
18140;SDS011;9196;49.194;12.526;2023-04-29T00:53:58;4.83;;;4.50;;
18140;SDS011;9196;49.194;12.526;2023-04-29T00:56:25;4.00;;;3.80;;
18140;SDS011;9196;49.194;12.526;2023-04-29T00:58:54;4.60;;;4.30;;
18140;SDS011;9196;49.194;12.526;2023-04-29T01:01:23;4.00;;;3.80;;
18140;SDS011;9196;49.194;12.526;2023-04-29T01:03:50;5.10;;;4.60;;
18140;SDS011;9196;49.194;12.526;2023-04-29T01:06:20;5.43;;;5.03;;
18140;SDS011;9196;49.194;12.526;2023-04-29T01:08:59;7.90;;;4.77;;
18140;SDS011;9196;49.194;12.526;2023-04-29T01:11:38;5.53;;;5.10;;
18140;SDS011;9196;49.194;12.526;2023-04-29T01:14:12;6.53;;;5.57;;
18140;SDS011;9196;49.194;12.526;2023-04-29T01:16:41;6.43;;;5.93;;
18140;SDS011;9196;49.194;12.526;2023-04-29T01:19:15;7.03;;;6.30;;
18140;SDS011;9196;49.194;12.526;2023-04-29T01:21:55;6.90;;;6.20;;
18140;SDS011;9196;49.194;12.526;2023-04-29T01:24:23;6.40;;;5.50;;
18140;SDS011;9196;49.194;12.526;2023-04-29T01:26:55;8.27;;;6.00;;
18140;SDS011;9196;49.194;12.526;2023-04-29T01:29:37;9.13;;;5.33;;
18140;SDS011;9196;49.194;12.526;2023-04-29T01:32:11;5.53;;;5.00;;
18140;SDS011;9196;49.194;12.526;2023-04-29T01:34:43;6.27;;;5.77;;
18140;SDS011;9196;49.194;12.526;2023-04-29T01:37:21;5.73;;;5.20;;
18140;SDS011;9196;49.194;12.526;2023-04-29T01:40:06;6.50;;;5.83;;
18140;SDS011;9196;49.194;12.526;2023-04-29T01:42:38;5.97;;;5.27;;
18140;SDS011;9196;49.194;12.526;2023-04-29T01:45:09;5.30;;;4.90;;
18140;SDS011;9196;49.194;12.526;2023-04-29T01:47:39;5.00;;;4.60;;
18140;SDS011;9196;49.194;12.526;2023-04-29T01:50:07;11.63;;;5.80;;
18140;SDS011;9196;49.194;12.526;2023-04-29T01:52:34;5.03;;;4.73;;
18140;SDS011;9196;49.194;12.526;2023-04-29T01:55:01;5.07;;;4.67;;
18140;SDS011;9196;49.194;12.526;2023-04-29T01:57:30;5.00;;;4.67;;
18140;SDS011;9196;49.194;12.526;2023-04-29T01:59:57;6.00;;;5.17;;
18140;SDS011;9196;49.194;12.526;2023-04-29T02:02:23;5.63;;;5.20;;
18140;SDS011;9196;49.194;12.526;2023-04-29T02:04:50;6.23;;;5.73;;
18140;SDS011;9196;49.194;12.526;2023-04-29T02:07:17;5.93;;;5.53;;
18140;SDS011;9196;49.194;12.526;2023-04-29T02:09:44;6.27;;;5.73;;
18140;SDS011;9196;49.194;12.526;2023-04-29T02:12:11;5.50;;;5.07;;
18140;SDS011;9196;49.194;12.526;2023-04-29T02:14:39;6.73;;;6.10;;
18140;SDS011;9196;49.194;12.526;2023-04-29T02:17:06;5.20;;;4.80;;
18140;SDS011;9196;49.194;12.526;2023-04-29T02:19:33;5.07;;;4.60;;
18140;SDS011;9196;49.194;12.526;2023-04-29T02:21:59;5.33;;;4.93;;
18140;SDS011;9196;49.194;12.526;2023-04-29T02:24:26;5.03;;;4.67;;
18140;SDS011;9196;49.194;12.526;2023-04-29T02:26:53;5.83;;;5.33;;
18140;SDS011;9196;49.194;12.526;2023-04-29T02:29:20;5.30;;;4.90;;
18140;SDS011;9196;49.194;12.526;2023-04-29T02:31:48;5.30;;;4.90;;
18140;SDS011;9196;49.194;12.526;2023-04-29T02:34:14;6.77;;;5.60;;
18140;SDS011;9196;49.194;12.526;2023-04-29T02:36:42;6.70;;;6.13;;
18140;SDS011;9196;49.194;12.526;2023-04-29T02:39:08;6.37;;;5.77;;
18140;SDS011;9196;49.194;12.526;2023-04-29T02:41:35;7.50;;;6.37;;
18140;SDS011;9196;49.194;12.526;2023-04-29T02:44:02;6.77;;;6.13;;
18140;SDS011;9196;49.194;12.526;2023-04-29T02:46:29;8.07;;;7.13;;
18140;SDS011;9196;49.194;12.526;2023-04-29T02:48:58;6.93;;;6.23;;
18140;SDS011;9196;49.194;12.526;2023-04-29T02:51:26;7.00;;;6.10;;
18140;SDS011;9196;49.194;12.526;2023-04-29T02:53:53;8.10;;;6.53;;
18140;SDS011;9196;49.194;12.526;2023-04-29T02:56:20;6.50;;;5.90;;
18140;SDS011;9196;49.194;12.526;2023-04-29T02:58:47;6.83;;;6.33;;
18140;SDS011;9196;49.194;12.526;2023-04-29T03:01:14;7.73;;;6.07;;
18140;SDS011;9196;49.194;12.526;2023-04-29T03:03:40;7.00;;;6.40;;
18140;SDS011;9196;49.194;12.526;2023-04-29T03:06:08;7.80;;;6.00;;
18140;SDS011;9196;49.194;12.526;2023-04-29T03:08:35;6.10;;;5.60;;
18140;SDS011;9196;49.194;12.526;2023-04-29T03:11:02;6.63;;;5.87;;
18140;SDS011;9196;49.194;12.526;2023-04-29T03:13:29;6.50;;;6.00;;
18140;SDS011;9196;49.194;12.526;2023-04-29T03:15:55;6.07;;;5.57;;
18140;SDS011;9196;49.194;12.526;2023-04-29T03:18:24;6.60;;;6.00;;
18140;SDS011;9196;49.194;12.526;2023-04-29T03:20:51;6.83;;;5.60;;
18140;SDS011;9196;49.194;12.526;2023-04-29T03:23:20;6.30;;;5.80;;
18140;SDS011;9196;49.194;12.526;2023-04-29T03:25:46;6.30;;;5.73;;
18140;SDS011;9196;49.194;12.526;2023-04-29T03:28:13;7.17;;;6.47;;
18140;SDS011;9196;49.194;12.526;2023-04-29T03:30:40;6.63;;;6.03;;
18140;SDS011;9196;49.194;12.526;2023-04-29T03:33:07;5.97;;;5.57;;
18140;SDS011;9196;49.194;12.526;2023-04-29T03:35:34;6.13;;;5.60;;
18140;SDS011;9196;49.194;12.526;2023-04-29T03:38:00;7.13;;;6.30;;
18140;SDS011;9196;49.194;12.526;2023-04-29T03:40:29;7.87;;;6.00;;
18140;SDS011;9196;49.194;12.526;2023-04-29T03:42:56;8.03;;;7.33;;
18140;SDS011;9196;49.194;12.526;2023-04-29T03:45:22;7.60;;;6.90;;
18140;SDS011;9196;49.194;12.526;2023-04-29T03:47:49;8.57;;;7.70;;
18140;SDS011;9196;49.194;12.526;2023-04-29T03:50:17;12.43;;;10.90;;
18140;SDS011;9196;49.194;12.526;2023-04-29T03:52:44;11.80;;;9.30;;
18140;SDS011;9196;49.194;12.526;2023-04-29T03:55:11;7.60;;;6.90;;
18140;SDS011;9196;49.194;12.526;2023-04-29T03:57:39;8.27;;;7.50;;
18140;SDS011;9196;49.194;12.526;2023-04-29T04:00:06;7.77;;;7.07;;
18140;SDS011;9196;49.194;12.526;2023-04-29T04:02:34;7.00;;;6.40;;
18140;SDS011;9196;49.194;12.526;2023-04-29T04:05:00;7.07;;;6.40;;
18140;SDS011;9196;49.194;12.526;2023-04-29T04:07:27;6.57;;;5.90;;
18140;SDS011;9196;49.194;12.526;2023-04-29T04:09:54;7.63;;;5.33;;
18140;SDS011;9196;49.194;12.526;2023-04-29T04:12:21;6.10;;;5.60;;
18140;SDS011;9196;49.194;12.526;2023-04-29T04:14:49;6.00;;;5.50;;
18140;SDS011;9196;49.194;12.526;2023-04-29T04:17:15;7.30;;;6.17;;
18140;SDS011;9196;49.194;12.526;2023-04-29T04:19:42;7.57;;;6.77;;
18140;SDS011;9196;49.194;12.526;2023-04-29T04:22:09;6.63;;;5.60;;
18140;SDS011;9196;49.194;12.526;2023-04-29T04:24:36;7.43;;;6.80;;
18140;SDS011;9196;49.194;12.526;2023-04-29T04:27:03;12.20;;;10.80;;
18140;SDS011;9196;49.194;12.526;2023-04-29T04:29:31;9.87;;;8.97;;
18140;SDS011;9196;49.194;12.526;2023-04-29T04:31:59;9.47;;;8.13;;
18140;SDS011;9196;49.194;12.526;2023-04-29T04:34:26;10.13;;;8.93;;
18140;SDS011;9196;49.194;12.526;2023-04-29T04:36:53;8.80;;;8.03;;
18140;SDS011;9196;49.194;12.526;2023-04-29T04:39:20;9.20;;;8.30;;
18140;SDS011;9196;49.194;12.526;2023-04-29T04:41:46;8.67;;;7.97;;
18140;SDS011;9196;49.194;12.526;2023-04-29T04:44:13;8.40;;;7.60;;
18140;SDS011;9196;49.194;12.526;2023-04-29T04:46:40;8.53;;;7.73;;
18140;SDS011;9196;49.194;12.526;2023-04-29T04:49:09;8.13;;;7.47;;
18140;SDS011;9196;49.194;12.526;2023-04-29T04:51:35;8.40;;;7.60;;
18140;SDS011;9196;49.194;12.526;2023-04-29T04:54:02;9.23;;;8.43;;
18140;SDS011;9196;49.194;12.526;2023-04-29T04:56:29;11.43;;;7.97;;
18140;SDS011;9196;49.194;12.526;2023-04-29T04:58:56;10.70;;;9.07;;
18140;SDS011;9196;49.194;12.526;2023-04-29T05:01:22;8.70;;;7.93;;
18140;SDS011;9196;49.194;12.526;2023-04-29T05:03:49;8.67;;;7.43;;
18140;SDS011;9196;49.194;12.526;2023-04-29T05:06:17;8.80;;;7.90;;
18140;SDS011;9196;49.194;12.526;2023-04-29T05:08:44;8.63;;;7.83;;
18140;SDS011;9196;49.194;12.526;2023-04-29T05:11:14;8.93;;;8.03;;
18140;SDS011;9196;49.194;12.526;2023-04-29T05:13:42;7.80;;;7.10;;
18140;SDS011;9196;49.194;12.526;2023-04-29T05:16:09;9.23;;;8.43;;
18140;SDS011;9196;49.194;12.526;2023-04-29T05:18:36;8.00;;;7.30;;
18140;SDS011;9196;49.194;12.526;2023-04-29T05:21:03;8.70;;;7.90;;
18140;SDS011;9196;49.194;12.526;2023-04-29T05:23:31;9.40;;;8.60;;
18140;SDS011;9196;49.194;12.526;2023-04-29T05:25:58;10.00;;;9.00;;
18140;SDS011;9196;49.194;12.526;2023-04-29T05:28:24;13.17;;;10.70;;
18140;SDS011;9196;49.194;12.526;2023-04-29T05:30:51;10.50;;;9.40;;
18140;SDS011;9196;49.194;12.526;2023-04-29T05:33:18;10.60;;;9.47;;
18140;SDS011;9196;49.194;12.526;2023-04-29T05:35:46;11.67;;;10.57;;
18140;SDS011;9196;49.194;12.526;2023-04-29T05:38:13;11.50;;;10.50;;
18140;SDS011;9196;49.194;12.526;2023-04-29T05:40:41;12.40;;;11.10;;
18140;SDS011;9196;49.194;12.526;2023-04-29T05:43:07;11.67;;;10.57;;
18140;SDS011;9196;49.194;12.526;2023-04-29T05:45:35;12.97;;;10.90;;
18140;SDS011;9196;49.194;12.526;2023-04-29T05:48:02;15.60;;;11.37;;
18140;SDS011;9196;49.194;12.526;2023-04-29T05:50:29;12.23;;;11.13;;
18140;SDS011;9196;49.194;12.526;2023-04-29T05:52:55;10.97;;;9.97;;
18140;SDS011;9196;49.194;12.526;2023-04-29T05:55:22;10.87;;;9.87;;
18140;SDS011;9196;49.194;12.526;2023-04-29T05:57:50;11.80;;;10.27;;
18140;SDS011;9196;49.194;12.526;2023-04-29T06:00:17;12.23;;;9.80;;
18140;SDS011;9196;49.194;12.526;2023-04-29T06:02:45;11.93;;;10.10;;
18140;SDS011;9196;49.194;12.526;2023-04-29T06:05:11;10.70;;;9.60;;
18140;SDS011;9196;49.194;12.526;2023-04-29T06:07:39;9.77;;;8.97;;
18140;SDS011;9196;49.194;12.526;2023-04-29T06:10:06;9.90;;;9.00;;
18140;SDS011;9196;49.194;12.526;2023-04-29T06:12:34;8.93;;;8.13;;
18140;SDS011;9196;49.194;12.526;2023-04-29T06:15:03;9.27;;;8.40;;
18140;SDS011;9196;49.194;12.526;2023-04-29T06:17:30;9.63;;;8.83;;
18140;SDS011;9196;49.194;12.526;2023-04-29T06:19:57;9.33;;;8.57;;
18140;SDS011;9196;49.194;12.526;2023-04-29T06:22:23;9.77;;;8.87;;
18140;SDS011;9196;49.194;12.526;2023-04-29T06:24:50;9.70;;;8.80;;
18140;SDS011;9196;49.194;12.526;2023-04-29T06:27:17;8.47;;;7.77;;
18140;SDS011;9196;49.194;12.526;2023-04-29T06:29:44;9.83;;;6.90;;
18140;SDS011;9196;49.194;12.526;2023-04-29T06:32:12;9.37;;;8.47;;
18140;SDS011;9196;49.194;12.526;2023-04-29T06:34:39;9.90;;;7.73;;
18140;SDS011;9196;49.194;12.526;2023-04-29T06:37:06;7.60;;;6.90;;
18140;SDS011;9196;49.194;12.526;2023-04-29T06:39:33;8.00;;;7.30;;
18140;SDS011;9196;49.194;12.526;2023-04-29T06:42:00;7.10;;;6.50;;
18140;SDS011;9196;49.194;12.526;2023-04-29T06:44:27;8.00;;;7.30;;
18140;SDS011;9196;49.194;12.526;2023-04-29T06:46:54;7.23;;;6.53;;
18140;SDS011;9196;49.194;12.526;2023-04-29T06:49:22;7.10;;;5.97;;
18140;SDS011;9196;49.194;12.526;2023-04-29T06:51:49;6.53;;;5.93;;
18140;SDS011;9196;49.194;12.526;2023-04-29T06:54:16;5.63;;;5.23;;
18140;SDS011;9196;49.194;12.526;2023-04-29T06:56:42;8.70;;;7.90;;
18140;SDS011;9196;49.194;12.526;2023-04-29T06:59:09;6.10;;;5.70;;
18140;SDS011;9196;49.194;12.526;2023-04-29T07:01:36;6.60;;;6.00;;
18140;SDS011;9196;49.194;12.526;2023-04-29T07:04:04;6.20;;;5.70;;
18140;SDS011;9196;49.194;12.526;2023-04-29T07:06:32;5.37;;;4.87;;
18140;SDS011;9196;49.194;12.526;2023-04-29T07:08:58;5.60;;;4.83;;
18140;SDS011;9196;49.194;12.526;2023-04-29T07:11:25;17.10;;;5.53;;
18140;SDS011;9196;49.194;12.526;2023-04-29T07:13:52;5.53;;;4.80;;
18140;SDS011;9196;49.194;12.526;2023-04-29T07:16:19;6.50;;;5.63;;
18140;SDS011;9196;49.194;12.526;2023-04-29T07:18:46;5.27;;;4.87;;
18140;SDS011;9196;49.194;12.526;2023-04-29T07:21:13;5.20;;;4.80;;
18140;SDS011;9196;49.194;12.526;2023-04-29T07:23:41;4.73;;;4.33;;
18140;SDS011;9196;49.194;12.526;2023-04-29T07:26:08;6.10;;;5.50;;
18140;SDS011;9196;49.194;12.526;2023-04-29T07:28:35;6.53;;;5.17;;
18140;SDS011;9196;49.194;12.526;2023-04-29T07:31:02;5.70;;;5.07;;
18140;SDS011;9196;49.194;12.526;2023-04-29T07:33:29;4.90;;;4.50;;
18140;SDS011;9196;49.194;12.526;2023-04-29T07:35:56;4.50;;;4.20;;
18140;SDS011;9196;49.194;12.526;2023-04-29T07:38:22;5.20;;;4.80;;
18140;SDS011;9196;49.194;12.526;2023-04-29T07:40:50;10.17;;;7.93;;
18140;SDS011;9196;49.194;12.526;2023-04-29T07:43:17;5.67;;;5.17;;
18140;SDS011;9196;49.194;12.526;2023-04-29T07:45:44;8.33;;;5.03;;
18140;SDS011;9196;49.194;12.526;2023-04-29T07:48:11;4.60;;;4.30;;
18140;SDS011;9196;49.194;12.526;2023-04-29T07:50:38;5.83;;;5.37;;
18140;SDS011;9196;49.194;12.526;2023-04-29T07:53:04;5.67;;;5.17;;
18140;SDS011;9196;49.194;12.526;2023-04-29T07:55:31;5.70;;;5.20;;
18140;SDS011;9196;49.194;12.526;2023-04-29T07:57:59;5.10;;;4.60;;
18140;SDS011;9196;49.194;12.526;2023-04-29T08:00:26;5.40;;;5.00;;
18140;SDS011;9196;49.194;12.526;2023-04-29T08:02:53;4.63;;;4.23;;
18140;SDS011;9196;49.194;12.526;2023-04-29T08:05:21;5.50;;;5.10;;
18140;SDS011;9196;49.194;12.526;2023-04-29T08:07:48;5.10;;;4.80;;
18140;SDS011;9196;49.194;12.526;2023-04-29T08:10:16;5.10;;;4.23;;
18140;SDS011;9196;49.194;12.526;2023-04-29T08:12:44;4.73;;;3.90;;
18140;SDS011;9196;49.194;12.526;2023-04-29T08:15:12;4.20;;;3.87;;
18140;SDS011;9196;49.194;12.526;2023-04-29T08:17:39;4.10;;;3.80;;
18140;SDS011;9196;49.194;12.526;2023-04-29T08:20:06;4.47;;;4.17;;
18140;SDS011;9196;49.194;12.526;2023-04-29T08:22:34;4.27;;;3.10;;
18140;SDS011;9196;49.194;12.526;2023-04-29T08:25:01;4.40;;;4.03;;
18140;SDS011;9196;49.194;12.526;2023-04-29T08:27:29;3.93;;;3.63;;
18140;SDS011;9196;49.194;12.526;2023-04-29T08:29:55;5.40;;;3.37;;
18140;SDS011;9196;49.194;12.526;2023-04-29T08:32:24;3.60;;;3.30;;
18140;SDS011;9196;49.194;12.526;2023-04-29T08:34:51;3.17;;;2.93;;
18140;SDS011;9196;49.194;12.526;2023-04-29T08:37:17;4.13;;;3.83;;
18140;SDS011;9196;49.194;12.526;2023-04-29T08:39:44;3.30;;;3.10;;
18140;SDS011;9196;49.194;12.526;2023-04-29T08:42:12;8.47;;;3.73;;
18140;SDS011;9196;49.194;12.526;2023-04-29T08:44:38;3.77;;;3.47;;
18140;SDS011;9196;49.194;12.526;2023-04-29T08:47:06;3.90;;;2.90;;
18140;SDS011;9196;49.194;12.526;2023-04-29T08:49:36;4.10;;;3.80;;
18140;SDS011;9196;49.194;12.526;2023-04-29T08:52:03;3.50;;;3.30;;
18140;SDS011;9196;49.194;12.526;2023-04-29T08:54:30;3.17;;;2.83;;
18140;SDS011;9196;49.194;12.526;2023-04-29T08:56:57;3.70;;;3.40;;
18140;SDS011;9196;49.194;12.526;2023-04-29T08:59:26;3.27;;;3.07;;
18140;SDS011;9196;49.194;12.526;2023-04-29T09:01:54;2.93;;;2.73;;
18140;SDS011;9196;49.194;12.526;2023-04-29T09:04:25;3.77;;;3.47;;
18140;SDS011;9196;49.194;12.526;2023-04-29T09:07:04;5.37;;;3.33;;
18140;SDS011;9196;49.194;12.526;2023-04-29T09:09:32;3.20;;;2.97;;
18140;SDS011;9196;49.194;12.526;2023-04-29T09:11:59;3.43;;;3.23;;
18140;SDS011;9196;49.194;12.526;2023-04-29T09:14:25;3.13;;;2.83;;
18140;SDS011;9196;49.194;12.526;2023-04-29T09:16:57;4.90;;;3.20;;
18140;SDS011;9196;49.194;12.526;2023-04-29T09:19:28;5.40;;;3.10;;
18140;SDS011;9196;49.194;12.526;2023-04-29T09:21:56;3.00;;;2.80;;
18140;SDS011;9196;49.194;12.526;2023-04-29T09:24:25;2.43;;;2.33;;
18140;SDS011;9196;49.194;12.526;2023-04-29T09:26:52;2.93;;;2.73;;
18140;SDS011;9196;49.194;12.526;2023-04-29T09:29:20;4.80;;;3.00;;
18140;SDS011;9196;49.194;12.526;2023-04-29T09:31:48;3.73;;;3.00;;
18140;SDS011;9196;49.194;12.526;2023-04-29T09:34:15;3.30;;;3.00;;
18140;SDS011;9196;49.194;12.526;2023-04-29T09:36:43;2.53;;;2.33;;
18140;SDS011;9196;49.194;12.526;2023-04-29T09:39:12;3.47;;;3.17;;
18140;SDS011;9196;49.194;12.526;2023-04-29T09:41:42;2.90;;;2.70;;
18140;SDS011;9196;49.194;12.526;2023-04-29T09:44:24;3.23;;;2.83;;
18140;SDS011;9196;49.194;12.526;2023-04-29T09:46:55;3.03;;;2.93;;
18140;SDS011;9196;49.194;12.526;2023-04-29T09:49:24;3.07;;;2.47;;
18140;SDS011;9196;49.194;12.526;2023-04-29T09:51:52;2.60;;;2.50;;
18140;SDS011;9196;49.194;12.526;2023-04-29T09:54:20;3.07;;;2.80;;
18140;SDS011;9196;49.194;12.526;2023-04-29T09:56:49;2.90;;;2.70;;
18140;SDS011;9196;49.194;12.526;2023-04-29T09:59:17;2.80;;;2.70;;
18140;SDS011;9196;49.194;12.526;2023-04-29T10:01:46;3.80;;;3.07;;
18140;SDS011;9196;49.194;12.526;2023-04-29T10:04:14;3.07;;;2.90;;
18140;SDS011;9196;49.194;12.526;2023-04-29T10:06:43;4.10;;;3.70;;
18140;SDS011;9196;49.194;12.526;2023-04-29T10:09:12;3.10;;;2.90;;
18140;SDS011;9196;49.194;12.526;2023-04-29T10:11:41;3.77;;;3.47;;
18140;SDS011;9196;49.194;12.526;2023-04-29T10:14:10;3.00;;;2.80;;
18140;SDS011;9196;49.194;12.526;2023-04-29T10:16:40;4.17;;;3.87;;
18140;SDS011;9196;49.194;12.526;2023-04-29T10:19:12;3.80;;;3.53;;
18140;SDS011;9196;49.194;12.526;2023-04-29T10:21:44;3.43;;;3.20;;
18140;SDS011;9196;49.194;12.526;2023-04-29T10:24:13;3.27;;;3.07;;
18140;SDS011;9196;49.194;12.526;2023-04-29T10:26:43;4.37;;;4.07;;
18140;SDS011;9196;49.194;12.526;2023-04-29T10:29:13;5.80;;;3.80;;
18140;SDS011;9196;49.194;12.526;2023-04-29T10:31:42;2.90;;;2.80;;
18140;SDS011;9196;49.194;12.526;2023-04-29T10:34:10;3.40;;;2.57;;
18140;SDS011;9196;49.194;12.526;2023-04-29T10:36:38;3.70;;;3.43;;
18140;SDS011;9196;49.194;12.526;2023-04-29T10:39:06;3.10;;;2.90;;
18140;SDS011;9196;49.194;12.526;2023-04-29T10:41:41;5.03;;;4.07;;
18140;SDS011;9196;49.194;12.526;2023-04-29T10:44:10;4.40;;;4.10;;
18140;SDS011;9196;49.194;12.526;2023-04-29T10:46:39;3.80;;;3.50;;
18140;SDS011;9196;49.194;12.526;2023-04-29T10:49:07;10.57;;;5.37;;
18140;SDS011;9196;49.194;12.526;2023-04-29T10:51:38;4.50;;;4.20;;
18140;SDS011;9196;49.194;12.526;2023-04-29T10:54:06;4.90;;;4.17;;
18140;SDS011;9196;49.194;12.526;2023-04-29T10:56:35;5.13;;;4.30;;
18140;SDS011;9196;49.194;12.526;2023-04-29T10:59:10;4.00;;;3.70;;
18140;SDS011;9196;49.194;12.526;2023-04-29T11:01:40;3.83;;;3.60;;
18140;SDS011;9196;49.194;12.526;2023-04-29T11:04:11;3.60;;;3.33;;
18140;SDS011;9196;49.194;12.526;2023-04-29T11:06:43;3.23;;;3.03;;
18140;SDS011;9196;49.194;12.526;2023-04-29T11:09:12;2.60;;;2.40;;
18140;SDS011;9196;49.194;12.526;2023-04-29T11:11:43;3.40;;;3.10;;
18140;SDS011;9196;49.194;12.526;2023-04-29T11:14:14;2.57;;;2.43;;
18140;SDS011;9196;49.194;12.526;2023-04-29T11:16:50;1.93;;;1.93;;
18140;SDS011;9196;49.194;12.526;2023-04-29T11:19:18;2.13;;;2.03;;
18140;SDS011;9196;49.194;12.526;2023-04-29T11:21:45;2.37;;;2.27;;
18140;SDS011;9196;49.194;12.526;2023-04-29T11:24:13;2.23;;;1.80;;
18140;SDS011;9196;49.194;12.526;2023-04-29T11:26:42;6.70;;;2.70;;
18140;SDS011;9196;49.194;12.526;2023-04-29T11:29:10;2.03;;;1.93;;
18140;SDS011;9196;49.194;12.526;2023-04-29T11:31:38;1.60;;;1.50;;
18140;SDS011;9196;49.194;12.526;2023-04-29T11:34:06;2.13;;;2.03;;
18140;SDS011;9196;49.194;12.526;2023-04-29T11:36:33;2.00;;;1.90;;
18140;SDS011;9196;49.194;12.526;2023-04-29T11:39:01;2.80;;;2.50;;
18140;SDS011;9196;49.194;12.526;2023-04-29T11:41:28;2.40;;;2.20;;
18140;SDS011;9196;49.194;12.526;2023-04-29T11:43:56;2.33;;;2.23;;
18140;SDS011;9196;49.194;12.526;2023-04-29T11:46:25;2.33;;;2.23;;
18140;SDS011;9196;49.194;12.526;2023-04-29T11:48:57;2.43;;;2.30;;
18140;SDS011;9196;49.194;12.526;2023-04-29T11:51:25;4.97;;;2.30;;
18140;SDS011;9196;49.194;12.526;2023-04-29T11:53:52;4.33;;;3.67;;
18140;SDS011;9196;49.194;12.526;2023-04-29T11:56:22;2.80;;;2.70;;
18140;SDS011;9196;49.194;12.526;2023-04-29T11:58:52;2.73;;;2.63;;
18140;SDS011;9196;49.194;12.526;2023-04-29T12:01:20;2.43;;;2.20;;
18140;SDS011;9196;49.194;12.526;2023-04-29T12:03:47;2.20;;;2.10;;
18140;SDS011;9196;49.194;12.526;2023-04-29T12:06:16;2.10;;;2.00;;
18140;SDS011;9196;49.194;12.526;2023-04-29T12:08:45;2.73;;;2.50;;
18140;SDS011;9196;49.194;12.526;2023-04-29T12:11:12;2.93;;;2.77;;
18140;SDS011;9196;49.194;12.526;2023-04-29T12:13:39;2.67;;;2.50;;
18140;SDS011;9196;49.194;12.526;2023-04-29T12:16:06;2.00;;;1.90;;
18140;SDS011;9196;49.194;12.526;2023-04-29T12:18:33;2.23;;;2.07;;
18140;SDS011;9196;49.194;12.526;2023-04-29T12:21:00;7.07;;;2.40;;
18140;SDS011;9196;49.194;12.526;2023-04-29T12:23:29;1.93;;;1.83;;
18140;SDS011;9196;49.194;12.526;2023-04-29T12:25:56;3.80;;;2.00;;
18140;SDS011;9196;49.194;12.526;2023-04-29T12:28:24;2.10;;;2.00;;
18140;SDS011;9196;49.194;12.526;2023-04-29T12:30:51;1.60;;;1.60;;
18140;SDS011;9196;49.194;12.526;2023-04-29T12:33:19;1.90;;;1.80;;
18140;SDS011;9196;49.194;12.526;2023-04-29T12:35:47;1.70;;;1.60;;
18140;SDS011;9196;49.194;12.526;2023-04-29T12:38:15;1.90;;;1.60;;
18140;SDS011;9196;49.194;12.526;2023-04-29T12:40:47;3.63;;;1.50;;
18140;SDS011;9196;49.194;12.526;2023-04-29T12:43:15;1.97;;;1.63;;
18140;SDS011;9196;49.194;12.526;2023-04-29T12:45:43;2.00;;;1.90;;
18140;SDS011;9196;49.194;12.526;2023-04-29T12:48:10;1.90;;;1.80;;
18140;SDS011;9196;49.194;12.526;2023-04-29T12:50:37;1.50;;;1.50;;
18140;SDS011;9196;49.194;12.526;2023-04-29T12:53:05;2.50;;;2.40;;
18140;SDS011;9196;49.194;12.526;2023-04-29T12:55:33;2.33;;;2.23;;
18140;SDS011;9196;49.194;12.526;2023-04-29T12:58:01;1.73;;;1.73;;
18140;SDS011;9196;49.194;12.526;2023-04-29T13:00:28;1.73;;;1.63;;
18140;SDS011;9196;49.194;12.526;2023-04-29T13:02:55;1.90;;;1.80;;
18140;SDS011;9196;49.194;12.526;2023-04-29T13:05:22;2.30;;;2.10;;
18140;SDS011;9196;49.194;12.526;2023-04-29T13:07:49;1.70;;;1.70;;
18140;SDS011;9196;49.194;12.526;2023-04-29T13:10:15;1.43;;;1.43;;
18140;SDS011;9196;49.194;12.526;2023-04-29T13:12:42;1.50;;;1.50;;
18140;SDS011;9196;49.194;12.526;2023-04-29T13:15:11;2.40;;;2.00;;
18140;SDS011;9196;49.194;12.526;2023-04-29T13:17:38;2.03;;;1.50;;
18140;SDS011;9196;49.194;12.526;2023-04-29T13:20:06;2.80;;;1.93;;
18140;SDS011;9196;49.194;12.526;2023-04-29T13:22:35;1.60;;;1.50;;
18140;SDS011;9196;49.194;12.526;2023-04-29T13:25:02;2.00;;;1.87;;
18140;SDS011;9196;49.194;12.526;2023-04-29T13:27:29;1.70;;;1.60;;
18140;SDS011;9196;49.194;12.526;2023-04-29T13:29:56;2.63;;;1.90;;
18140;SDS011;9196;49.194;12.526;2023-04-29T13:32:24;1.70;;;1.60;;
18140;SDS011;9196;49.194;12.526;2023-04-29T13:34:51;15.73;;;2.30;;
18140;SDS011;9196;49.194;12.526;2023-04-29T13:37:18;1.70;;;1.60;;
18140;SDS011;9196;49.194;12.526;2023-04-29T13:39:45;1.87;;;1.77;;
18140;SDS011;9196;49.194;12.526;2023-04-29T13:42:12;2.13;;;2.03;;
18140;SDS011;9196;49.194;12.526;2023-04-29T13:44:39;1.90;;;1.77;;
18140;SDS011;9196;49.194;12.526;2023-04-29T13:47:09;3.00;;;2.80;;
18140;SDS011;9196;49.194;12.526;2023-04-29T13:49:38;2.30;;;2.10;;
18140;SDS011;9196;49.194;12.526;2023-04-29T13:52:05;2.20;;;2.00;;
18140;SDS011;9196;49.194;12.526;2023-04-29T13:54:32;1.70;;;1.60;;
18140;SDS011;9196;49.194;12.526;2023-04-29T13:56:58;2.50;;;2.40;;
18140;SDS011;9196;49.194;12.526;2023-04-29T13:59:28;2.07;;;1.97;;
18140;SDS011;9196;49.194;12.526;2023-04-29T14:01:54;1.80;;;1.70;;
18140;SDS011;9196;49.194;12.526;2023-04-29T14:04:21;2.83;;;2.63;;
18140;SDS011;9196;49.194;12.526;2023-04-29T14:06:50;2.90;;;2.43;;
18140;SDS011;9196;49.194;12.526;2023-04-29T14:09:17;4.50;;;2.47;;
18140;SDS011;9196;49.194;12.526;2023-04-29T14:11:44;2.80;;;2.10;;
18140;SDS011;9196;49.194;12.526;2023-04-29T14:14:11;2.03;;;1.93;;
18140;SDS011;9196;49.194;12.526;2023-04-29T14:16:38;2.10;;;2.00;;
18140;SDS011;9196;49.194;12.526;2023-04-29T14:19:05;2.40;;;2.30;;
18140;SDS011;9196;49.194;12.526;2023-04-29T14:21:32;2.53;;;2.33;;
18140;SDS011;9196;49.194;12.526;2023-04-29T14:24:01;2.53;;;2.43;;
18140;SDS011;9196;49.194;12.526;2023-04-29T14:26:28;2.60;;;2.07;;
18140;SDS011;9196;49.194;12.526;2023-04-29T14:28:55;2.30;;;2.20;;
18140;SDS011;9196;49.194;12.526;2023-04-29T14:31:23;2.93;;;2.13;;
18140;SDS011;9196;49.194;12.526;2023-04-29T14:33:51;2.83;;;2.67;;
18140;SDS011;9196;49.194;12.526;2023-04-29T14:36:18;2.13;;;2.03;;
18140;SDS011;9196;49.194;12.526;2023-04-29T14:38:45;1.97;;;1.87;;
18140;SDS011;9196;49.194;12.526;2023-04-29T14:41:13;1.90;;;1.80;;
18140;SDS011;9196;49.194;12.526;2023-04-29T14:43:41;2.03;;;1.93;;
18140;SDS011;9196;49.194;12.526;2023-04-29T14:46:07;2.07;;;1.97;;
18140;SDS011;9196;49.194;12.526;2023-04-29T14:48:34;2.60;;;2.40;;